Time;durP1;ratioP1;P1;durP2;ratioP2;P2;SDS_P1;SDS_P2;PMS_P1;PMS_P2;Temp;Humidity;BMP_temperature;BMP_pressure;BME280_temperature;BME280_humidity;BME280_pressure;Samples;Min_cycle;Max_cycle;Signal;HPM_P1;HPM_P2
2021/08/20 00:03:48;;;;;;;4.80;2.65;;;;;;;20.81;77.44;100122.41;2911700;82;20993;-67
2021/08/20 00:08:16;;;;;;;3.15;2.52;;;;;;;20.76;77.25;100116.24;2911657;82;21064;-68
2021/08/20 00:12:18;;;;;;;4.08;2.72;;;;;;;20.67;77.30;100116.91;2933793;80;20963;-66
2021/08/20 00:16:47;;;;;;;4.78;2.50;;;;;;;20.58;77.55;100114.55;2857088;83;20985;-63
2021/08/20 00:20:49;;;;;;;3.83;2.90;;;;;;;20.51;77.84;100113.14;2857015;83;21030;-71
2021/08/20 00:25:01;;;;;;;4.17;2.92;;;;;;;20.41;78.31;100112.13;2870057;83;20967;-67
2021/08/20 00:29:04;;;;;;;5.03;2.77;;;;;;;20.39;78.40;100113.66;2865632;83;21006;-66
2021/08/20 00:33:24;;;;;;;3.27;2.98;;;;;;;20.33;78.65;100114.45;2867109;83;21026;-63
2021/08/20 00:37:27;;;;;;;2.83;2.12;;;;;;;20.33;78.96;100114.45;2867535;83;21018;-63
2021/08/20 00:42:08;;;;;;;3.87;2.30;;;;;;;20.31;79.02;100117.86;2867676;83;20990;-64
2021/08/20 00:46:13;;;;;;;12.50;2.80;;;;;;;20.28;79.15;100119.60;2867561;83;21042;-63
2021/08/20 00:55:20;;;;;;;4.25;3.55;;;;;;;20.23;79.55;100120.67;2853959;83;21061;-65
2021/08/20 00:59:25;;;;;;;3.45;3.12;;;;;;;20.15;79.78;100123.52;2847548;83;21074;-63
2021/08/20 01:03:28;;;;;;;3.65;2.92;;;;;;;20.11;79.87;100118.52;2854533;83;20994;-66
2021/08/20 01:07:32;;;;;;;4.03;3.25;;;;;;;20.07;80.09;100115.03;2854516;83;20982;-65
2021/08/20 01:11:36;;;;;;;4.40;3.47;;;;;;;20.04;80.34;100117.59;2854972;82;21022;-70
2021/08/20 01:15:39;;;;;;;4.33;3.55;;;;;;;20.03;80.25;100115.92;2860033;83;21030;-64
2021/08/20 01:19:49;;;;;;;4.45;4.05;;;;;;;20.05;80.21;100114.39;2860295;83;21002;-63
2021/08/20 01:23:57;;;;;;;10.40;3.33;;;;;;;20.06;80.31;100116.91;2907019;82;20971;-65
2021/08/20 01:28:07;;;;;;;4.28;3.20;;;;;;;20.09;80.21;100120.57;2907290;82;21021;-69
2021/08/20 01:32:09;;;;;;;3.52;3.22;;;;;;;20.09;79.89;100120.57;2860266;83;20948;-63
2021/08/20 01:36:24;;;;;;;3.95;3.08;;;;;;;20.12;79.94;100120.18;2907190;82;20978;-64
2021/08/20 01:40:27;;;;;;;3.67;2.72;;;;;;;20.09;79.87;100121.92;2907389;82;21002;-64
2021/08/20 01:44:42;;;;;;;5.50;3.40;;;;;;;20.15;80.06;100117.63;2906642;82;21014;-66
2021/08/20 01:48:58;;;;;;;6.10;3.62;;;;;;;20.20;79.93;100115.66;2907281;82;21041;-63
2021/08/20 01:53:59;;;;;;;4.03;2.90;;;;;;;20.26;79.73;100114.38;2861431;82;21061;-63
2021/08/20 01:58:03;;;;;;;3.35;2.72;;;;;;;20.37;79.67;100114.91;2818029;83;21008;-63
2021/08/20 02:02:17;;;;;;;5.12;3.27;;;;;;;20.45;79.30;100109.88;2925300;81;21252;-67
2021/08/20 02:06:20;;;;;;;3.92;3.58;;;;;;;20.50;79.10;100110.94;2900161;81;20970;-63
2021/08/20 02:10:23;;;;;;;3.77;3.35;;;;;;;20.47;78.18;100113.22;2925154;81;21050;-65
2021/08/20 02:14:25;;;;;;;3.90;3.52;;;;;;;20.25;78.85;100115.94;2837964;83;21622;-64
2021/08/20 02:18:27;;;;;;;3.80;3.50;;;;;;;20.03;79.72;100114.56;2844344;83;21375;-68
2021/08/20 02:22:31;;;;;;;3.45;3.10;;;;;;;19.90;80.70;100115.77;2924979;81;21088;-67
2021/08/20 02:26:35;;;;;;;4.87;3.75;;;;;;;19.77;81.19;100111.89;2864796;83;21038;-63
2021/08/20 02:30:37;;;;;;;4.80;4.12;;;;;;;19.73;81.54;100113.80;2844273;83;21103;-64
2021/08/20 02:34:39;;;;;;;5.22;3.77;;;;;;;19.69;81.87;100106.62;2925230;81;20958;-64
2021/08/20 02:39:04;;;;;;;4.33;3.22;;;;;;;19.70;81.86;100104.25;2866326;83;20997;-67
2021/08/20 02:43:06;;;;;;;5.70;4.45;;;;;;;19.69;81.94;100107.97;2875108;83;21002;-68
2021/08/20 02:47:08;;;;;;;7.83;3.37;;;;;;;19.70;81.87;100105.59;2874974;83;21009;-64
2021/08/20 02:51:11;;;;;;;4.00;3.45;;;;;;;19.72;81.88;100099.49;2875117;83;21006;-67
2021/08/20 02:55:17;;;;;;;4.70;3.45;;;;;;;19.75;81.78;100105.85;2853309;82;21026;-65
2021/08/20 02:59:21;;;;;;;4.15;3.37;;;;;;;19.75;81.67;100100.45;2849130;83;21026;-64
2021/08/20 03:04:01;;;;;;;3.92;3.17;;;;;;;19.73;81.83;100103.86;2849033;83;20979;-63
2021/08/20 03:08:04;;;;;;;3.98;3.17;;;;;;;19.71;81.95;100100.52;2849849;83;21007;-66
2021/08/20 03:13:06;;;;;;;4.78;3.95;;;;;;;19.70;82.27;100106.95;2849325;82;21042;-68
2021/08/20 03:17:08;;;;;;;9.18;3.58;;;;;;;19.73;82.14;100103.86;2849256;83;21009;-63
2021/08/20 03:22:16;;;;;;;5.47;4.37;;;;;;;19.75;82.30;100107.20;2849386;83;20987;-71
2021/08/20 03:26:18;;;;;;;4.85;3.37;;;;;;;19.71;82.37;100103.22;2849548;83;21042;-64
2021/08/20 03:30:31;;;;;;;9.15;4.50;;;;;;;19.68;82.73;100110.35;2864027;82;21010;-62
2021/08/20 03:34:33;;;;;;;4.42;4.03;;;;;;;19.69;82.66;100121.47;2841516;82;20952;-58
2021/08/20 03:38:35;;;;;;;4.22;3.83;;;;;;;19.66;82.61;100115.11;2841039;83;20976;-59
2021/08/20 03:42:44;;;;;;;4.12;3.72;;;;;;;19.67;82.82;100124.87;2840865;81;20968;-58
2021/08/20 03:46:46;;;;;;;4.20;3.80;;;;;;;19.70;82.69;100131.23;2841224;81;20988;-58
2021/08/20 03:50:49;;;;;;;3.65;3.35;;;;;;;19.70;82.68;100128.53;2840872;81;20991;-61
2021/08/20 03:55:15;;;;;;;4.72;4.22;;;;;;;19.76;82.78;100126.41;2840999;81;21042;-59
2021/08/20 03:59:19;;;;;;;2.97;2.77;;;;;;;19.86;82.38;100129.34;2815120;83;21014;-58
2021/08/20 04:03:23;;;;;;;4.75;3.42;;;;;;;19.87;82.01;100129.66;2857167;83;21022;-58
2021/08/20 04:07:28;;;;;;;15.75;5.12;;;;;;;19.90;81.97;100137.37;2857029;81;20978;-59
2021/08/20 04:11:29;;;;;;;2.27;2.08;;;;;;;19.93;81.90;100133.78;2856952;83;21067;-60
2021/08/20 04:15:32;;;;;;;5.67;2.90;;;;;;;19.99;81.76;100140.28;2856719;81;21073;-57
2021/08/20 04:19:36;;;;;;;10.30;4.72;;;;;;;20.04;81.84;100136.48;2857162;83;21034;-61
2021/08/20 04:23:38;;;;;;;9.68;3.72;;;;;;;20.13;81.69;100141.25;2872974;82;21042;-57
2021/08/20 04:27:52;;;;;;;5.05;2.98;;;;;;;20.22;81.40;100141.95;2867147;79;21010;-59
2021/08/20 04:31:56;;;;;;;3.05;2.67;;;;;;;20.24;81.29;100142.59;2865535;82;20994;-58
2021/08/20 04:36:24;;;;;;;3.55;2.90;;;;;;;20.27;81.21;100139.54;2856923;83;20975;-58
2021/08/20 04:40:28;;;;;;;4.83;2.95;;;;;;;20.33;81.43;100146.86;2893688;82;21019;-60
2021/08/20 04:44:35;;;;;;;3.95;2.65;;;;;;;20.33;81.26;100149.56;2877857;82;20923;-59
2021/08/20 04:48:37;;;;;;;10.53;4.72;;;;;;;20.39;81.52;100153.36;2906723;82;20976;-60
2021/08/20 04:52:43;;;;;;;15.53;4.33;;;;;;;20.45;81.48;100149.87;2906673;81;20963;-59
2021/08/20 04:56:46;;;;;;;3.12;2.52;;;;;;;20.53;81.45;100148.36;2907103;80;21501;-57
2021/08/20 05:00:49;;;;;;;3.35;2.98;;;;;;;20.62;81.61;100157.70;2907579;81;20959;-58
2021/08/20 05:04:51;;;;;;;4.28;2.47;;;;;;;20.69;81.52;100155.37;2906897;80;20955;-56
2021/08/20 05:09:12;;;;;;;2.98;2.67;;;;;;;20.79;81.79;100159.59;2907373;81;20986;-61
2021/08/20 05:13:15;;;;;;;3.12;2.33;;;;;;;20.89;81.76;100156.58;2906681;80;21010;-58
2021/08/20 05:17:19;;;;;;;4.97;3.22;;;;;;;21.00;81.64;100154.69;2879382;82;21015;-59
2021/08/20 05:21:28;;;;;;;21.35;4.58;;;;;;;21.06;81.56;100157.12;2903923;81;21030;-58
2021/08/20 05:25:38;;;;;;;2.83;2.47;;;;;;;21.19;81.88;100159.06;2907397;82;21054;-58
2021/08/20 05:29:43;;;;;;;6.75;3.40;;;;;;;21.26;81.45;100160.78;2906886;82;21046;-59
2021/08/20 05:33:51;;;;;;;3.65;3.35;;;;;;;21.43;80.88;100159.10;2906475;82;21014;-61
2021/08/20 05:37:53;;;;;;;2.83;2.55;;;;;;;21.55;80.70;100153.95;2906866;82;20947;-58
2021/08/20 05:41:56;;;;;;;4.80;3.30;;;;;;;21.81;80.86;100165.43;2906814;82;21025;-61
2021/08/20 05:46:36;;;;;;;3.55;2.58;;;;;;;22.07;80.37;100161.63;2906923;82;20943;-57
2021/08/20 05:50:39;;;;;;;3.05;2.75;;;;;;;22.44;80.32;100162.63;2906516;81;21069;-58
2021/08/20 05:55:20;;;;;;;3.60;2.45;;;;;;;22.72;77.59;100161.11;2906840;80;21006;-57
2021/08/20 05:59:22;;;;;;;5.92;2.85;;;;;;;22.95;77.15;100169.31;2846412;83;21030;-60
2021/08/20 06:03:26;;;;;;;5.42;3.22;;;;;;;23.09;73.70;100175.55;2835438;81;21065;-57
2021/08/20 06:07:31;;;;;;;2.98;1.80;;;;;;;23.15;72.26;100173.34;2807699;85;20996;-59
2021/08/20 06:11:36;;;;;;;7.12;2.85;;;;;;;23.20;71.31;100171.34;2840226;82;21288;-62
2021/08/20 06:16:04;;;;;;;5.05;2.60;;;;;;;23.05;70.39;100164.81;2835965;84;20966;-62
2021/08/20 06:20:08;;;;;;;3.20;2.45;;;;;;;23.01;71.17;100170.36;2807102;85;21339;-59
2021/08/20 06:24:11;;;;;;;2.80;2.30;;;;;;;23.00;70.85;100172.77;2835978;84;20994;-60
2021/08/20 06:28:13;;;;;;;6.08;4.85;;;;;;;22.89;70.44;100170.98;2814822;83;21007;-59
2021/08/20 06:32:17;;;;;;;5.12;4.15;;;;;;;22.73;70.54;100171.41;2856234;83;21019;-56
2021/08/20 06:36:19;;;;;;;7.70;4.67;;;;;;;22.68;71.19;100169.31;2856619;83;20995;-61
2021/08/20 06:40:26;;;;;;;3.95;2.85;;;;;;;22.73;71.84;100174.12;2856852;83;20964;-58
2021/08/20 06:44:29;;;;;;;5.03;3.83;;;;;;;22.90;71.02;100175.36;2856736;83;21046;-63
2021/08/20 06:48:36;;;;;;;3.95;2.95;;;;;;;22.97;70.75;100175.36;2856733;83;21070;-57
2021/08/20 06:52:38;;;;;;;3.65;2.83;;;;;;;23.05;70.15;100174.31;2856795;83;21042;-59
2021/08/20 06:56:42;;;;;;;7.58;2.77;;;;;;;23.10;70.38;100177.22;2830472;82;21003;-57
2021/08/20 07:00:46;;;;;;;4.42;3.00;;;;;;;23.15;69.97;100183.37;2830303;84;21006;-58
2021/08/20 07:04:51;;;;;;;7.37;3.58;;;;;;;23.10;70.29;100178.57;2830406;81;21065;-59
2021/08/20 07:08:55;;;;;;;3.37;3.02;;;;;;;23.20;70.04;100183.05;2893007;80;20956;-60
2021/08/20 07:12:57;;;;;;;5.08;3.92;;;;;;;23.20;69.56;100181.69;2888963;80;20968;-63
2021/08/20 07:17:05;;;;;;;4.42;3.47;;;;;;;23.21;70.93;100182.52;2893093;82;21000;-59
2021/08/20 07:21:07;;;;;;;5.28;4.28;;;;;;;23.36;70.16;100191.79;2893003;82;20928;-56
2021/08/20 07:25:10;;;;;;;3.92;2.90;;;;;;;23.43;69.41;100193.98;2892784;80;21011;-60
2021/08/20 07:29:21;;;;;;;14.50;4.22;;;;;;;23.42;68.98;100190.95;2893508;82;21054;-57
2021/08/20 07:33:25;;;;;;;5.00;3.50;;;;;;;23.42;69.70;100188.24;2893146;80;21049;-60
2021/08/20 07:37:28;;;;;;;3.72;2.98;;;;;;;23.38;69.42;100197.83;2892998;82;21002;-57
2021/08/20 07:41:58;;;;;;;6.85;3.67;;;;;;;23.33;69.53;100196.29;2893115;82;21038;-62
2021/08/20 07:46:05;;;;;;;6.12;3.75;;;;;;;23.21;70.24;100197.44;2844226;82;21027;-61
2021/08/20 07:50:18;;;;;;;4.95;3.50;;;;;;;23.15;69.91;100192.86;2844226;81;21077;-59
2021/08/20 07:54:21;;;;;;;4.28;3.42;;;;;;;23.22;71.11;100194.52;2844210;83;21473;-59
2021/08/20 07:58:28;;;;;;;3.52;3.22;;;;;;;23.50;70.84;100196.14;2843994;82;20987;-58
2021/08/20 08:02:33;;;;;;;5.50;4.05;;;;;;;23.77;70.98;100196.02;2856279;81;20971;-63
2021/08/20 08:06:36;;;;;;;4.25;3.12;;;;;;;23.79;68.54;100199.38;2912780;79;21048;-58
2021/08/20 08:10:41;;;;;;;6.85;2.70;;;;;;;23.82;68.90;100196.23;2939769;81;21039;-60
2021/08/20 08:14:48;;;;;;;9.03;4.72;;;;;;;23.78;68.58;100196.87;2939920;79;20999;-60
2021/08/20 08:18:54;;;;;;;4.12;3.72;;;;;;;23.66;69.21;100200.78;2939596;81;21090;-62
2021/08/20 08:22:59;;;;;;;6.22;3.35;;;;;;;23.63;69.90;100201.22;2939637;81;21015;-57
2021/08/20 08:27:08;;;;;;;2.87;2.58;;;;;;;23.63;69.30;100203.94;2939993;81;21009;-59
2021/08/20 08:31:12;;;;;;;6.83;3.80;;;;;;;23.60;70.17;100203.83;2928007;81;21007;-60
2021/08/20 08:35:15;;;;;;;7.53;4.62;;;;;;;23.56;69.72;100212.61;2860308;81;21042;-61
2021/08/20 08:39:21;;;;;;;8.25;4.30;;;;;;;23.43;69.29;100200.77;2907172;80;21022;-57
2021/08/20 08:43:34;;;;;;;6.40;3.27;;;;;;;23.34;68.99;100211.52;2907135;82;20916;-56
2021/08/20 08:47:37;;;;;;;62.73;13.98;;;;;;;23.30;68.58;100206.22;2858386;81;21044;-57
2021/08/20 08:51:41;;;;;;;4.85;3.55;;;;;;;23.27;69.03;100203.93;2839341;84;21024;-59
2021/08/20 08:55:49;;;;;;;7.20;4.42;;;;;;;23.40;69.12;100213.41;2839440;83;21008;-57
2021/08/20 08:59:52;;;;;;;5.70;3.72;;;;;;;23.47;69.52;100210.65;2831061;83;21363;-57
2021/08/20 09:04:16;;;;;;;7.42;4.25;;;;;;;23.57;68.86;100218.34;2821435;83;21043;-59
2021/08/20 09:08:21;;;;;;;4.47;3.90;;;;;;;23.65;68.51;100216.77;2845859;83;21027;-60
2021/08/20 09:13:00;;;;;;;19.85;6.60;;;;;;;23.77;69.25;100209.60;2818765;83;21062;-56
2021/08/20 09:17:04;;;;;;;4.95;3.17;;;;;;;23.98;68.48;100213.09;2812564;83;20944;-56
2021/08/20 09:21:07;;;;;;;5.03;3.75;;;;;;;24.26;68.38;100211.91;2847371;83;21000;-56
2021/08/20 09:30:13;;;;;;;3.37;3.12;;;;;;;24.80;66.85;100204.77;2803632;83;21231;-59
2021/08/20 09:34:31;;;;;;;5.42;3.95;;;;;;;24.95;65.84;100203.05;2805826;83;20991;-57
2021/08/20 09:38:37;;;;;;;5.95;4.47;;;;;;;25.09;64.92;100207.31;2811298;82;21034;-59
2021/08/20 09:42:40;;;;;;;10.28;4.85;;;;;;;25.17;64.70;100200.75;2869193;82;20999;-56
2021/08/20 09:46:45;;;;;;;5.97;4.37;;;;;;;25.25;64.61;100207.77;2891520;82;21047;-60
2021/08/20 09:50:49;;;;;;;6.30;4.67;;;;;;;25.11;64.87;100205.72;2892220;82;20995;-59
2021/08/20 09:54:51;;;;;;;8.28;4.40;;;;;;;25.02;65.26;100203.81;2891048;82;20995;-62
2021/08/20 09:59:04;;;;;;;5.25;3.65;;;;;;;25.03;65.62;100197.31;2911664;79;21015;-56
2021/08/20 10:03:08;;;;;;;3.80;2.52;;;;;;;24.97;65.48;100195.49;2944453;80;21090;-56
2021/08/20 10:07:20;;;;;;;2.45;2.08;;;;;;;24.97;65.54;100196.04;2921191;81;21021;-60
2021/08/20 10:11:24;;;;;;;4.42;3.40;;;;;;;24.99;63.02;100197.46;2829939;81;21060;-60
2021/08/20 10:15:26;;;;;;;18.17;2.37;;;;;;;25.13;65.50;100188.63;2922271;81;21468;-58
2021/08/20 10:20:02;;;;;;;2.87;1.77;;;;;;;25.24;61.24;100186.54;2898701;82;20988;-57
2021/08/20 10:24:07;;;;;;;1.98;0.80;;;;;;;25.37;61.33;100184.19;2889599;82;20947;-60
2021/08/20 10:28:14;;;;;;;1.55;1.10;;;;;;;25.40;58.86;100178.84;2851511;82;21011;-58
2021/08/20 10:32:17;;;;;;;1.70;1.12;;;;;;;25.45;59.47;100174.89;2873491;82;21027;-60
2021/08/20 10:36:50;;;;;;;9.25;2.27;;;;;;;25.64;60.17;100170.83;2898905;82;20951;-59
2021/08/20 10:41:19;;;;;;;2.65;0.60;;;;;;;25.77;58.12;100163.86;2884413;82;21010;-58
2021/08/20 10:45:27;;;;;;;10.08;2.50;;;;;;;25.63;57.57;100165.08;2849022;83;21074;-58
2021/08/20 10:49:47;;;;;;;1.50;0.65;;;;;;;25.51;57.68;100162.30;2887139;82;21030;-58
2021/08/20 10:53:49;;;;;;;1.55;0.85;;;;;;;25.47;58.51;100169.23;2899268;82;21018;-58
2021/08/20 10:58:04;;;;;;;1.12;0.80;;;;;;;25.45;57.87;100172.17;2905231;82;20979;-59
2021/08/20 11:02:45;;;;;;;1.00;0.60;;;;;;;25.36;58.16;100166.20;2885898;78;21263;-57
2021/08/20 11:06:52;;;;;;;3.27;1.35;;;;;;;25.35;57.19;100169.98;2891458;80;20967;-57
2021/08/20 11:10:57;;;;;;;3.27;1.32;;;;;;;25.42;56.91;100169.06;2844955;81;21023;-59
2021/08/20 11:15:25;;;;;;;4.20;2.50;;;;;;;25.45;57.01;100169.45;2844262;82;20983;-59
2021/08/20 11:19:48;;;;;;;5.80;2.85;;;;;;;25.47;56.96;100167.36;2844249;82;21011;-57
2021/08/20 11:23:55;;;;;;;9.88;2.85;;;;;;;25.50;58.09;100166.90;2844273;80;21042;-56
2021/08/20 11:28:20;;;;;;;2.65;1.75;;;;;;;25.66;58.91;100170.06;2839839;80;21022;-57
2021/08/20 11:32:22;;;;;;;3.70;1.57;;;;;;;25.70;58.41;100169.09;2842703;81;20992;-58
2021/08/20 11:36:24;;;;;;;1.60;1.37;;;;;;;25.63;58.29;100164.53;2888396;82;21015;-60
2021/08/20 11:40:27;;;;;;;6.20;2.70;;;;;;;25.44;59.25;100167.79;2895484;82;21024;-60
2021/08/20 11:44:30;;;;;;;20.92;4.15;;;;;;;25.13;63.48;100175.57;2897974;81;21001;-58
2021/08/20 11:48:47;;;;;;;7.87;4.08;;;;;;;24.23;71.05;100177.02;2898106;82;20936;-56
2021/08/20 11:52:50;;;;;;;19.07;3.92;;;;;;;23.24;75.09;100201.08;2897651;82;21002;-58
2021/08/20 11:57:44;;;;;;;4.87;2.85;;;;;;;22.50;79.52;100203.33;2897885;82;21040;-58
2021/08/20 12:02:09;;;;;;;6.97;2.90;;;;;;;22.24;80.66;100210.85;2897863;81;20982;-58
2021/08/20 12:06:15;;;;;;;3.42;1.90;;;;;;;22.23;81.50;100220.02;2894367;82;21100;-57
2021/08/20 12:10:26;;;;;;;4.45;2.77;;;;;;;22.23;82.39;100224.91;2897632;80;20977;-57
2021/08/20 12:14:31;;;;;;;4.83;3.27;;;;;;;22.22;83.26;100225.12;2897191;78;21068;-58
2021/08/20 12:18:43;;;;;;;4.15;2.87;;;;;;;22.13;83.04;100218.20;2891758;82;20924;-57
2021/08/20 12:22:49;;;;;;;2.30;2.00;;;;;;;22.04;83.92;100233.30;2859853;81;20963;-57
2021/08/20 12:27:16;;;;;;;9.88;4.05;;;;;;;21.91;84.71;100237.30;2889764;82;21033;-57
2021/08/20 12:31:28;;;;;;;4.12;3.50;;;;;;;21.63;85.96;100243.61;2884039;81;21066;-57
2021/08/20 12:35:34;;;;;;;4.42;2.52;;;;;;;21.28;87.20;100246.30;2854263;82;21117;-59
2021/08/20 12:39:43;;;;;;;5.50;2.42;;;;;;;20.96;86.59;100242.64;2846835;82;21006;-64
2021/08/20 12:43:54;;;;;;;2.87;2.45;;;;;;;20.59;85.84;100256.72;2857018;83;21010;-62
2021/08/20 12:48:06;;;;;;;4.12;2.70;;;;;;;20.28;85.61;100267.29;2906872;82;20998;-62
2021/08/20 12:52:09;;;;;;;4.90;4.40;;;;;;;20.17;86.39;100272.67;2876535;81;21021;-62
2021/08/20 12:56:11;;;;;;;6.97;5.42;;;;;;;20.16;88.26;100263.75;2831140;83;21022;-63
2021/08/20 13:00:31;;;;;;;6.33;2.77;;;;;;;20.21;89.96;100257.76;2869981;82;20943;-61
2021/08/20 13:04:34;;;;;;;2.02;1.92;;;;;;;20.34;90.29;100245.77;2906657;81;20983;-63
2021/08/20 13:08:36;;;;;;;3.02;2.72;;;;;;;20.58;90.58;100246.41;2900548;81;21026;-63
2021/08/20 13:12:39;;;;;;;2.92;2.30;;;;;;;20.71;90.70;100243.00;2879446;82;20994;-63
2021/08/20 13:16:54;;;;;;;3.92;2.65;;;;;;;20.85;89.01;100251.27;2877100;80;20951;-60
2021/08/20 13:20:57;;;;;;;7.00;2.33;;;;;;;20.94;88.79;100252.28;2886860;82;20963;-61
2021/08/20 13:26:03;;;;;;;2.15;1.95;;;;;;;21.03;88.78;100251.63;2895268;81;20923;-61
2021/08/20 13:30:06;;;;;;;2.87;2.58;;;;;;;21.15;88.22;100254.63;2897064;82;20970;-60
2021/08/20 13:34:11;;;;;;;3.12;2.50;;;;;;;21.26;89.08;100242.43;2906797;82;21074;-63
2021/08/20 13:38:44;;;;;;;3.93;2.87;;;;;;;21.35;88.77;100214.70;2907532;82;21006;-62
2021/08/20 13:43:14;;;;;;;2.62;2.37;;;;;;;21.39;88.80;100211.91;2855778;83;21027;-63
2021/08/20 13:47:35;;;;;;;3.90;2.58;;;;;;;21.45;88.30;100217.05;2835246;84;21053;-65
2021/08/20 13:51:37;;;;;;;3.05;2.75;;;;;;;21.55;89.02;100241.36;2906795;82;21091;-66
2021/08/20 14:00:39;;;;;;;2.87;2.67;;;;;;;21.65;88.45;100242.92;2906565;82;21101;-65
2021/08/20 14:04:45;;;;;;;3.52;2.95;;;;;;;21.68;88.12;100247.92;2879520;82;21018;-62
2021/08/20 14:08:47;;;;;;;6.17;3.05;;;;;;;21.74;88.70;100248.47;2907022;81;21140;-64
2021/08/20 14:18:20;;;;;;;3.35;2.62;;;;;;;22.35;92.06;100250.87;2906962;81;21006;-64
2021/08/20 14:22:29;;;;;;;3.62;3.10;;;;;;;22.79;90.51;100236.98;2847543;82;20976;-62
2021/08/20 14:26:32;;;;;;;4.67;3.00;;;;;;;23.13;90.87;100240.54;2823485;84;20974;-63
2021/08/20 14:30:53;;;;;;;5.83;2.47;;;;;;;23.40;89.67;100235.12;2793386;85;20959;-68
2021/08/20 14:34:57;;;;;;;5.15;3.02;;;;;;;23.62;86.58;100239.73;2801323;84;21104;-73
2021/08/20 14:39:22;;;;;;;3.22;2.37;;;;;;;23.73;85.26;100232.81;2847926;82;21015;-64
2021/08/20 14:43:24;;;;;;;2.65;2.35;;;;;;;23.79;82.40;100227.90;2847873;81;21042;-63
2021/08/20 14:47:26;;;;;;;3.22;1.95;;;;;;;23.94;81.00;100226.77;2789642;84;21018;-63
2021/08/20 14:51:29;;;;;;;3.00;2.12;;;;;;;24.05;78.75;100223.41;2752858;85;21247;-67
2021/08/20 14:55:38;;;;;;;2.05;1.72;;;;;;;24.12;77.32;100215.75;2779273;84;21003;-67
2021/08/20 15:00:06;;;;;;;3.05;1.67;;;;;;;24.19;77.59;100215.20;2807089;83;21014;-64
2021/08/20 15:04:08;;;;;;;4.67;2.77;;;;;;;24.29;76.66;100211.47;2893661;82;21026;-64
2021/08/20 15:08:11;;;;;;;2.90;2.27;;;;;;;24.33;75.69;100207.80;2892728;80;21018;-65
2021/08/20 15:12:15;;;;;;;3.30;2.30;;;;;;;24.41;76.98;100211.59;2888308;82;23526;-64
2021/08/20 15:16:19;;;;;;;3.20;1.87;;;;;;;24.50;76.39;100201.29;2859880;83;21114;-63
2021/08/20 15:20:21;;;;;;;2.17;1.82;;;;;;;24.65;75.79;100208.61;2906981;82;21027;-66
2021/08/20 15:24:23;;;;;;;3.35;2.25;;;;;;;24.80;73.76;100208.30;2860041;83;20984;-64
2021/08/20 15:28:25;;;;;;;2.40;2.02;;;;;;;24.90;71.95;100207.80;2906950;82;20963;-64
2021/08/20 15:32:31;;;;;;;4.35;2.98;;;;;;;24.99;72.09;100201.54;2906947;80;20986;-64
2021/08/20 15:36:33;;;;;;;3.60;2.95;;;;;;;24.99;71.13;100198.82;2906658;82;21050;-66
2021/08/20 15:40:35;;;;;;;3.70;1.60;;;;;;;24.98;71.45;100206.68;2906967;81;20970;-65
2021/08/20 15:44:37;;;;;;;2.22;1.42;;;;;;;24.95;71.48;100198.42;2906190;82;21041;-65
2021/08/20 15:48:58;;;;;;;1.77;1.27;;;;;;;24.96;71.46;100195.19;2906902;82;21041;-64
2021/08/20 15:53:00;;;;;;;2.05;1.40;;;;;;;24.98;68.90;100196.34;2896753;82;21054;-64
2021/08/20 15:57:34;;;;;;;2.55;1.55;;;;;;;24.92;68.40;100198.88;2876467;82;20955;-63
2021/08/20 16:01:42;;;;;;;3.58;2.12;;;;;;;24.91;68.20;100202.66;2891935;82;20951;-63
2021/08/20 16:05:44;;;;;;;11.40;2.10;;;;;;;24.87;67.28;100198.72;2907895;82;20954;-64
2021/08/20 16:10:14;;;;;;;2.05;1.80;;;;;;;24.88;67.69;100202.29;2890221;82;20984;-63
2021/08/20 16:14:19;;;;;;;2.95;2.40;;;;;;;24.85;67.51;100202.71;2890204;82;20980;-63
2021/08/20 16:18:24;;;;;;;1.95;1.47;;;;;;;24.77;68.38;100209.29;2889981;82;21015;-62
2021/08/20 16:22:27;;;;;;;1.85;1.75;;;;;;;24.72;68.43;100207.70;2890241;82;20940;-62
2021/08/20 16:26:39;;;;;;;2.85;2.17;;;;;;;24.59;68.06;100208.14;2890377;82;20972;-66
2021/08/20 16:30:41;;;;;;;4.40;2.50;;;;;;;24.50;68.56;100198.57;2890036;82;20963;-64
2021/08/20 16:34:44;;;;;;;2.72;2.22;;;;;;;24.32;68.47;100206.13;2890178;82;21102;-62
2021/08/20 16:38:47;;;;;;;2.12;1.92;;;;;;;24.16;69.58;100208.31;2890068;82;21031;-62
2021/08/20 16:42:49;;;;;;;2.85;2.25;;;;;;;24.04;70.27;100208.17;2890059;82;22010;-65
2021/08/20 16:47:29;;;;;;;2.37;2.08;;;;;;;23.95;69.92;100210.27;2889952;82;21042;-63
2021/08/20 16:51:32;;;;;;;3.85;2.10;;;;;;;23.78;70.42;100214.02;2890173;82;20973;-67
2021/08/20 16:56:26;;;;;;;3.42;2.27;;;;;;;23.65;71.72;100210.80;2889534;82;21067;-63
2021/08/20 17:00:29;;;;;;;3.08;2.77;;;;;;;23.59;72.09;100222.52;2855983;82;21034;-66
2021/08/20 17:04:32;;;;;;;3.27;2.42;;;;;;;23.56;72.97;100222.95;2814994;84;21030;-67
2021/08/20 17:08:35;;;;;;;3.95;2.70;;;;;;;23.58;73.38;100224.08;2800056;84;21054;-63
2021/08/20 17:12:38;;;;;;;2.33;2.12;;;;;;;23.59;73.59;100228.50;2808164;85;21066;-62
2021/08/20 17:17:54;;;;;;;5.05;2.92;;;;;;;23.56;73.75;100228.39;2776275;85;21034;-68
2021/08/20 17:21:58;;;;;;;8.80;5.80;;;;;;;23.50;74.11;100219.21;2737041;86;20975;-62
2021/08/20 17:26:00;;;;;;;6.58;4.97;;;;;;;23.49;74.17;100220.26;2761686;86;21523;-64
2021/08/20 17:30:14;;;;;;;9.85;5.33;;;;;;;23.52;74.08;100223.08;2761827;86;21081;-63
2021/08/20 17:34:16;;;;;;;5.53;3.98;;;;;;;23.54;74.27;100221.80;2761739;84;21344;-63
2021/08/20 17:38:20;;;;;;;8.53;5.62;;;;;;;23.56;74.34;100222.11;2762232;83;20986;-63
2021/08/20 17:42:22;;;;;;;15.95;8.00;;;;;;;23.42;74.84;100222.16;2762300;85;21137;-62
2021/08/20 17:46:23;;;;;;;15.20;8.20;;;;;;;23.33;74.71;100227.50;2761900;85;20992;-64
2021/08/20 17:51:09;;;;;;;10.80;7.70;;;;;;;23.25;74.67;100231.23;2762212;84;21073;-63
2021/08/20 17:55:11;;;;;;;18.77;9.98;;;;;;;23.20;74.95;100241.89;2780022;84;21231;-63
2021/08/20 17:59:13;;;;;;;12.58;7.90;;;;;;;23.07;75.43;100247.63;2812846;84;20988;-64
2021/08/20 18:03:19;;;;;;;4.80;3.37;;;;;;;22.90;76.09;100247.23;2812580;83;21058;-62
2021/08/20 18:07:21;;;;;;;4.30;3.60;;;;;;;22.71;75.35;100250.77;2812777;84;20987;-62
2021/08/20 18:11:26;;;;;;;6.42;3.35;;;;;;;22.49;75.17;100255.02;2807005;84;21009;-65
2021/08/20 18:16:12;;;;;;;4.95;4.37;;;;;;;22.28;75.14;100258.16;2802186;84;21208;-66
2021/08/20 18:20:16;;;;;;;6.12;3.70;;;;;;;22.13;75.42;100263.75;2802290;85;21025;-62
2021/08/20 18:24:18;;;;;;;9.68;4.70;;;;;;;21.95;75.62;100275.12;2802258;85;21033;-64
2021/08/20 18:28:45;;;;;;;3.75;2.87;;;;;;;21.79;75.74;100286.59;2802237;85;20954;-63
2021/08/20 18:32:49;;;;;;;6.10;4.00;;;;;;;21.51;76.30;100295.56;2810876;84;21105;-65
2021/08/20 18:37:05;;;;;;;5.40;4.03;;;;;;;21.15;77.06;100304.66;2812672;84;21035;-63
2021/08/20 18:41:08;;;;;;;5.87;4.47;;;;;;;20.91;77.93;100313.51;2812667;84;20999;-62
2021/08/20 18:45:11;;;;;;;5.83;4.75;;;;;;;20.75;78.80;100333.50;2812276;84;21034;-63
2021/08/20 18:49:12;;;;;;;6.12;4.42;;;;;;;20.64;79.15;100349.70;2812729;84;20963;-63
2021/08/20 18:53:15;;;;;;;7.60;4.55;;;;;;;20.49;80.28;100354.30;2775596;84;21023;-62
2021/08/20 18:57:21;;;;;;;6.10;4.95;;;;;;;20.41;81.20;100356.59;2781345;84;20968;-66
2021/08/20 19:01:23;;;;;;;7.20;6.00;;;;;;;20.28;82.96;100359.97;2770858;85;20976;-61
2021/08/20 19:05:27;;;;;;;7.35;5.67;;;;;;;20.12;83.50;100357.79;2796135;85;21004;-63
2021/08/20 19:09:30;;;;;;;5.73;4.53;;;;;;;19.88;83.59;100367.50;2792387;85;21035;-66
2021/08/20 19:13:34;;;;;;;5.55;4.75;;;;;;;19.58;84.50;100364.75;2750483;86;21018;-66
2021/08/20 19:17:36;;;;;;;5.80;4.85;;;;;;;19.54;85.68;100369.16;2785348;85;21012;-64
2021/08/20 19:21:38;;;;;;;7.10;5.37;;;;;;;19.66;85.32;100364.69;2770569;85;20995;-62
2021/08/20 19:25:51;;;;;;;5.47;4.95;;;;;;;19.77;84.86;100371.48;2796384;85;21027;-63
2021/08/20 19:29:55;;;;;;;8.50;6.10;;;;;;;19.86;84.45;100373.59;2770879;83;21073;-66
2021/08/20 19:34:01;;;;;;;6.22;4.83;;;;;;;19.80;84.15;100367.89;2793719;83;21030;-63
2021/08/20 19:38:03;;;;;;;5.65;5.05;;;;;;;19.81;83.37;100366.86;2854971;82;20964;-64
2021/08/20 19:42:12;;;;;;;7.03;4.85;;;;;;;19.80;83.35;100366.54;2818584;83;21046;-65